sensor_id;sensor_type;location;lat;lon;timestamp;temperature;humidity
15967;DHT22;15175;48.154;11.534;2023-01-16T00:01:34;3.60;99.90
15967;DHT22;15175;48.154;11.534;2023-01-16T00:04:01;3.70;99.90
15967;DHT22;15175;48.154;11.534;2023-01-16T00:06:28;3.60;99.90
15967;DHT22;15175;48.154;11.534;2023-01-16T00:08:55;3.60;99.90
15967;DHT22;15175;48.154;11.534;2023-01-16T00:11:23;3.60;99.90
15967;DHT22;15175;48.154;11.534;2023-01-16T00:13:50;3.60;99.90
15967;DHT22;15175;48.154;11.534;2023-01-16T00:16:18;3.60;99.90
15967;DHT22;15175;48.154;11.534;2023-01-16T00:18:46;3.60;99.90
15967;DHT22;15175;48.154;11.534;2023-01-16T00:21:14;3.60;99.90
15967;DHT22;15175;48.154;11.534;2023-01-16T00:23:42;3.60;99.90
15967;DHT22;15175;48.154;11.534;2023-01-16T00:26:10;3.60;99.90
15967;DHT22;15175;48.154;11.534;2023-01-16T00:28:39;3.60;99.90
15967;DHT22;15175;48.154;11.534;2023-01-16T00:31:06;3.60;99.90
15967;DHT22;15175;48.154;11.534;2023-01-16T00:33:34;3.50;99.90
15967;DHT22;15175;48.154;11.534;2023-01-16T00:36:01;3.50;99.90
15967;DHT22;15175;48.154;11.534;2023-01-16T00:38:28;3.50;99.90
15967;DHT22;15175;48.154;11.534;2023-01-16T00:40:55;3.50;99.90
15967;DHT22;15175;48.154;11.534;2023-01-16T00:43:22;3.50;99.90
15967;DHT22;15175;48.154;11.534;2023-01-16T00:45:51;3.40;99.90
15967;DHT22;15175;48.154;11.534;2023-01-16T00:48:18;3.40;99.90
15967;DHT22;15175;48.154;11.534;2023-01-16T00:50:45;3.30;99.90
15967;DHT22;15175;48.154;11.534;2023-01-16T00:53:12;3.40;99.90
15967;DHT22;15175;48.154;11.534;2023-01-16T00:55:39;3.40;99.90
15967;DHT22;15175;48.154;11.534;2023-01-16T00:58:07;3.40;99.90
15967;DHT22;15175;48.154;11.534;2023-01-16T01:00:35;3.40;99.90
15967;DHT22;15175;48.154;11.534;2023-01-16T01:03:04;3.40;99.90
15967;DHT22;15175;48.154;11.534;2023-01-16T01:05:35;3.40;99.90
15967;DHT22;15175;48.154;11.534;2023-01-16T01:08:03;3.40;99.90
15967;DHT22;15175;48.154;11.534;2023-01-16T01:10:30;3.30;99.90
15967;DHT22;15175;48.154;11.534;2023-01-16T01:12:57;3.30;99.90
15967;DHT22;15175;48.154;11.534;2023-01-16T01:15:24;3.30;99.90
15967;DHT22;15175;48.154;11.534;2023-01-16T01:17:51;3.30;99.90
15967;DHT22;15175;48.154;11.534;2023-01-16T01:20:20;3.30;99.90
15967;DHT22;15175;48.154;11.534;2023-01-16T01:22:47;3.40;99.90
15967;DHT22;15175;48.154;11.534;2023-01-16T01:25:14;3.30;99.90
15967;DHT22;15175;48.154;11.534;2023-01-16T01:27:41;3.30;99.90
15967;DHT22;15175;48.154;11.534;2023-01-16T01:30:09;3.30;99.90
15967;DHT22;15175;48.154;11.534;2023-01-16T01:32:36;3.30;99.90
15967;DHT22;15175;48.154;11.534;2023-01-16T01:35:05;3.30;99.90
15967;DHT22;15175;48.154;11.534;2023-01-16T01:37:34;3.30;99.90
15967;DHT22;15175;48.154;11.534;2023-01-16T01:40:02;3.30;99.90
15967;DHT22;15175;48.154;11.534;2023-01-16T01:42:30;3.30;99.90
15967;DHT22;15175;48.154;11.534;2023-01-16T01:45:20;3.30;99.90
15967;DHT22;15175;48.154;11.534;2023-01-16T01:47:54;3.30;99.90
15967;DHT22;15175;48.154;11.534;2023-01-16T01:50:32;3.30;99.90
15967;DHT22;15175;48.154;11.534;2023-01-16T01:53:04;3.30;99.90
15967;DHT22;15175;48.154;11.534;2023-01-16T01:55:33;3.30;99.90
15967;DHT22;15175;48.154;11.534;2023-01-16T01:58:01;3.30;99.90
15967;DHT22;15175;48.154;11.534;2023-01-16T02:00:29;3.30;99.90
15967;DHT22;15175;48.154;11.534;2023-01-16T02:03:00;3.20;99.90
15967;DHT22;15175;48.154;11.534;2023-01-16T02:05:32;3.20;99.90
15967;DHT22;15175;48.154;11.534;2023-01-16T02:08:04;3.20;99.90
15967;DHT22;15175;48.154;11.534;2023-01-16T02:10:36;3.20;99.90
15967;DHT22;15175;48.154;11.534;2023-01-16T02:13:05;3.20;99.90
15967;DHT22;15175;48.154;11.534;2023-01-16T02:15:32;3.30;99.90
15967;DHT22;15175;48.154;11.534;2023-01-16T02:18:00;3.30;99.90
15967;DHT22;15175;48.154;11.534;2023-01-16T02:20:55;3.30;99.90
15967;DHT22;15175;48.154;11.534;2023-01-16T02:26:49;3.30;99.90
15967;DHT22;15175;48.154;11.534;2023-01-16T02:29:52;3.30;99.90
15967;DHT22;15175;48.154;11.534;2023-01-16T02:32:33;3.30;99.90
15967;DHT22;15175;48.154;11.534;2023-01-16T02:35:14;3.30;99.90
15967;DHT22;15175;48.154;11.534;2023-01-16T02:37:49;3.30;99.90
15967;DHT22;15175;48.154;11.534;2023-01-16T02:40:30;3.20;99.90
15967;DHT22;15175;48.154;11.534;2023-01-16T02:43:12;3.20;99.90
15967;DHT22;15175;48.154;11.534;2023-01-16T02:45:43;3.20;99.90
15967;DHT22;15175;48.154;11.534;2023-01-16T02:48:23;3.20;99.90
15967;DHT22;15175;48.154;11.534;2023-01-16T02:50:56;3.30;99.90
15967;DHT22;15175;48.154;11.534;2023-01-16T02:53:28;3.30;99.90
15967;DHT22;15175;48.154;11.534;2023-01-16T02:55:57;3.30;99.90
15967;DHT22;15175;48.154;11.534;2023-01-16T02:58:31;3.30;99.90
15967;DHT22;15175;48.154;11.534;2023-01-16T03:01:00;3.20;99.90
15967;DHT22;15175;48.154;11.534;2023-01-16T03:03:38;3.20;99.90
15967;DHT22;15175;48.154;11.534;2023-01-16T03:06:19;3.20;99.90
15967;DHT22;15175;48.154;11.534;2023-01-16T03:08:51;3.20;99.90
15967;DHT22;15175;48.154;11.534;2023-01-16T03:11:24;3.20;99.90
15967;DHT22;15175;48.154;11.534;2023-01-16T03:14:03;3.20;99.90
15967;DHT22;15175;48.154;11.534;2023-01-16T03:16:39;3.30;99.90
15967;DHT22;15175;48.154;11.534;2023-01-16T03:19:21;3.30;99.90
15967;DHT22;15175;48.154;11.534;2023-01-16T03:21:59;3.30;99.90
15967;DHT22;15175;48.154;11.534;2023-01-16T03:24:57;3.30;99.90
15967;DHT22;15175;48.154;11.534;2023-01-16T03:27:34;3.30;99.90
15967;DHT22;15175;48.154;11.534;2023-01-16T03:30:09;3.30;99.90
15967;DHT22;15175;48.154;11.534;2023-01-16T03:32:41;3.30;99.90
15967;DHT22;15175;48.154;11.534;2023-01-16T03:35:15;3.30;99.90
15967;DHT22;15175;48.154;11.534;2023-01-16T03:37:46;3.20;99.90
15967;DHT22;15175;48.154;11.534;2023-01-16T03:40:20;3.20;99.90
15967;DHT22;15175;48.154;11.534;2023-01-16T03:42:55;3.20;99.90
15967;DHT22;15175;48.154;11.534;2023-01-16T03:45:28;3.20;99.90
15967;DHT22;15175;48.154;11.534;2023-01-16T03:48:02;3.20;99.90
15967;DHT22;15175;48.154;11.534;2023-01-16T03:50:32;3.20;99.90
15967;DHT22;15175;48.154;11.534;2023-01-16T03:53:04;3.20;99.90
15967;DHT22;15175;48.154;11.534;2023-01-16T03:55:38;3.20;99.90
15967;DHT22;15175;48.154;11.534;2023-01-16T03:58:09;3.20;99.90
15967;DHT22;15175;48.154;11.534;2023-01-16T04:00:44;3.20;99.90
15967;DHT22;15175;48.154;11.534;2023-01-16T04:03:17;3.20;99.90
15967;DHT22;15175;48.154;11.534;2023-01-16T04:05:51;3.20;99.90
15967;DHT22;15175;48.154;11.534;2023-01-16T04:08:24;3.20;99.90
15967;DHT22;15175;48.154;11.534;2023-01-16T04:10:55;3.20;99.90
15967;DHT22;15175;48.154;11.534;2023-01-16T04:13:26;3.20;99.90
15967;DHT22;15175;48.154;11.534;2023-01-16T04:15:57;3.20;99.90
15967;DHT22;15175;48.154;11.534;2023-01-16T04:18:30;3.20;99.90
15967;DHT22;15175;48.154;11.534;2023-01-16T04:20:59;3.20;99.90
15967;DHT22;15175;48.154;11.534;2023-01-16T04:23:26;3.10;99.90
15967;DHT22;15175;48.154;11.534;2023-01-16T04:25:53;3.10;99.90
15967;DHT22;15175;48.154;11.534;2023-01-16T04:28:20;3.10;99.90
15967;DHT22;15175;48.154;11.534;2023-01-16T04:30:47;3.00;99.90
15967;DHT22;15175;48.154;11.534;2023-01-16T04:33:14;3.00;99.90
15967;DHT22;15175;48.154;11.534;2023-01-16T04:35:41;2.90;99.90
15967;DHT22;15175;48.154;11.534;2023-01-16T04:38:10;2.90;99.90
15967;DHT22;15175;48.154;11.534;2023-01-16T04:40:37;2.80;99.90
15967;DHT22;15175;48.154;11.534;2023-01-16T04:43:04;2.80;99.90
15967;DHT22;15175;48.154;11.534;2023-01-16T04:45:31;2.70;99.90
15967;DHT22;15175;48.154;11.534;2023-01-16T04:47:58;2.70;99.90
15967;DHT22;15175;48.154;11.534;2023-01-16T04:50:25;2.70;99.90
15967;DHT22;15175;48.154;11.534;2023-01-16T04:52:52;2.70;99.90
15967;DHT22;15175;48.154;11.534;2023-01-16T04:55:21;2.60;99.90
15967;DHT22;15175;48.154;11.534;2023-01-16T04:57:48;2.60;99.90
15967;DHT22;15175;48.154;11.534;2023-01-16T05:00:16;2.60;99.90
15967;DHT22;15175;48.154;11.534;2023-01-16T05:02:43;2.50;99.90
15967;DHT22;15175;48.154;11.534;2023-01-16T05:05:10;2.50;99.90
15967;DHT22;15175;48.154;11.534;2023-01-16T05:07:37;2.50;99.90
15967;DHT22;15175;48.154;11.534;2023-01-16T05:10:05;2.40;99.90
15967;DHT22;15175;48.154;11.534;2023-01-16T05:12:33;2.40;99.90
15967;DHT22;15175;48.154;11.534;2023-01-16T05:15:01;2.30;99.90
15967;DHT22;15175;48.154;11.534;2023-01-16T05:17:28;2.40;99.90
15967;DHT22;15175;48.154;11.534;2023-01-16T05:19:55;2.30;99.90
15967;DHT22;15175;48.154;11.534;2023-01-16T05:22:22;2.20;99.90
15967;DHT22;15175;48.154;11.534;2023-01-16T05:24:49;2.20;99.90
15967;DHT22;15175;48.154;11.534;2023-01-16T05:27:16;2.20;99.90
15967;DHT22;15175;48.154;11.534;2023-01-16T05:29:44;2.20;99.90
15967;DHT22;15175;48.154;11.534;2023-01-16T05:32:11;2.20;99.90
15967;DHT22;15175;48.154;11.534;2023-01-16T05:34:38;2.20;99.90
15967;DHT22;15175;48.154;11.534;2023-01-16T05:37:05;2.20;99.90
15967;DHT22;15175;48.154;11.534;2023-01-16T05:39:32;2.20;99.90
15967;DHT22;15175;48.154;11.534;2023-01-16T05:41:59;2.20;99.90
15967;DHT22;15175;48.154;11.534;2023-01-16T05:44:26;2.10;99.90
15967;DHT22;15175;48.154;11.534;2023-01-16T05:46:55;2.10;99.90
15967;DHT22;15175;48.154;11.534;2023-01-16T05:49:22;2.10;99.90
15967;DHT22;15175;48.154;11.534;2023-01-16T05:51:49;2.10;99.90
15967;DHT22;15175;48.154;11.534;2023-01-16T05:54:16;2.10;99.90
15967;DHT22;15175;48.154;11.534;2023-01-16T05:56:43;2.10;99.90
15967;DHT22;15175;48.154;11.534;2023-01-16T05:59:10;2.10;99.90
15967;DHT22;15175;48.154;11.534;2023-01-16T06:01:37;2.20;99.90
15967;DHT22;15175;48.154;11.534;2023-01-16T06:04:05;2.20;99.90
15967;DHT22;15175;48.154;11.534;2023-01-16T06:06:32;2.20;99.90
15967;DHT22;15175;48.154;11.534;2023-01-16T06:08:59;2.20;99.90
15967;DHT22;15175;48.154;11.534;2023-01-16T06:11:26;2.20;99.90
15967;DHT22;15175;48.154;11.534;2023-01-16T06:13:53;2.20;99.90
15967;DHT22;15175;48.154;11.534;2023-01-16T06:16:21;2.10;99.90
15967;DHT22;15175;48.154;11.534;2023-01-16T06:18:49;2.10;99.90
15967;DHT22;15175;48.154;11.534;2023-01-16T06:21:17;2.10;99.90
15967;DHT22;15175;48.154;11.534;2023-01-16T06:23:44;2.20;99.90
15967;DHT22;15175;48.154;11.534;2023-01-16T06:26:11;2.20;99.90
15967;DHT22;15175;48.154;11.534;2023-01-16T06:28:39;2.20;99.90
15967;DHT22;15175;48.154;11.534;2023-01-16T06:31:06;2.20;99.90
15967;DHT22;15175;48.154;11.534;2023-01-16T06:33:34;2.10;99.90
15967;DHT22;15175;48.154;11.534;2023-01-16T06:36:02;2.20;99.90
15967;DHT22;15175;48.154;11.534;2023-01-16T06:38:30;2.20;99.90
15967;DHT22;15175;48.154;11.534;2023-01-16T06:40:57;2.20;99.90
15967;DHT22;15175;48.154;11.534;2023-01-16T06:43:25;2.20;99.90
15967;DHT22;15175;48.154;11.534;2023-01-16T06:45:53;2.20;99.90
15967;DHT22;15175;48.154;11.534;2023-01-16T06:48:20;2.20;99.90
15967;DHT22;15175;48.154;11.534;2023-01-16T06:50:47;2.20;99.90
15967;DHT22;15175;48.154;11.534;2023-01-16T06:53:15;2.20;99.90
15967;DHT22;15175;48.154;11.534;2023-01-16T06:55:44;2.20;99.90
15967;DHT22;15175;48.154;11.534;2023-01-16T06:58:11;2.20;99.90
15967;DHT22;15175;48.154;11.534;2023-01-16T07:00:38;2.20;99.90
15967;DHT22;15175;48.154;11.534;2023-01-16T07:03:05;2.30;99.90
15967;DHT22;15175;48.154;11.534;2023-01-16T07:05:32;2.30;99.90
15967;DHT22;15175;48.154;11.534;2023-01-16T07:07:59;2.30;99.90
15967;DHT22;15175;48.154;11.534;2023-01-16T07:10:27;2.30;99.90
15967;DHT22;15175;48.154;11.534;2023-01-16T07:12:55;2.30;99.90
15967;DHT22;15175;48.154;11.534;2023-01-16T07:15:22;2.30;99.90
15967;DHT22;15175;48.154;11.534;2023-01-16T07:18:11;2.30;99.90
15967;DHT22;15175;48.154;11.534;2023-01-16T07:20:59;2.40;99.90
15967;DHT22;15175;48.154;11.534;2023-01-16T07:23:46;2.40;99.90
15967;DHT22;15175;48.154;11.534;2023-01-16T07:26:15;2.40;99.90
15967;DHT22;15175;48.154;11.534;2023-01-16T07:28:46;2.40;99.90
15967;DHT22;15175;48.154;11.534;2023-01-16T07:31:15;2.40;99.90
15967;DHT22;15175;48.154;11.534;2023-01-16T07:33:42;2.40;99.90
15967;DHT22;15175;48.154;11.534;2023-01-16T07:36:09;2.40;99.90
15967;DHT22;15175;48.154;11.534;2023-01-16T07:38:36;2.30;99.90
15967;DHT22;15175;48.154;11.534;2023-01-16T07:41:04;2.40;99.90
15967;DHT22;15175;48.154;11.534;2023-01-16T07:43:31;2.30;99.90
15967;DHT22;15175;48.154;11.534;2023-01-16T07:45:59;2.30;99.90
15967;DHT22;15175;48.154;11.534;2023-01-16T07:48:26;2.30;99.90
15967;DHT22;15175;48.154;11.534;2023-01-16T07:50:54;2.30;99.90
15967;DHT22;15175;48.154;11.534;2023-01-16T07:53:24;2.30;99.90
15967;DHT22;15175;48.154;11.534;2023-01-16T07:55:52;2.30;99.90
15967;DHT22;15175;48.154;11.534;2023-01-16T07:58:20;2.30;99.90
15967;DHT22;15175;48.154;11.534;2023-01-16T08:00:48;2.30;99.90
15967;DHT22;15175;48.154;11.534;2023-01-16T08:03:17;2.30;99.90
15967;DHT22;15175;48.154;11.534;2023-01-16T08:05:44;2.40;99.90
15967;DHT22;15175;48.154;11.534;2023-01-16T08:08:12;2.40;99.90
15967;DHT22;15175;48.154;11.534;2023-01-16T08:10:39;2.50;99.90
15967;DHT22;15175;48.154;11.534;2023-01-16T08:13:07;2.60;99.90
15967;DHT22;15175;48.154;11.534;2023-01-16T08:15:34;2.60;99.90
15967;DHT22;15175;48.154;11.534;2023-01-16T08:18:01;2.70;99.90
15967;DHT22;15175;48.154;11.534;2023-01-16T08:20:29;2.70;99.90
15967;DHT22;15175;48.154;11.534;2023-01-16T08:22:56;2.70;99.90
15967;DHT22;15175;48.154;11.534;2023-01-16T08:25:25;2.70;99.90
15967;DHT22;15175;48.154;11.534;2023-01-16T08:27:52;2.80;99.90
15967;DHT22;15175;48.154;11.534;2023-01-16T08:30:20;2.80;99.90
15967;DHT22;15175;48.154;11.534;2023-01-16T08:32:47;2.80;99.90
15967;DHT22;15175;48.154;11.534;2023-01-16T08:35:14;2.80;99.90
15967;DHT22;15175;48.154;11.534;2023-01-16T08:37:49;2.70;99.90
15967;DHT22;15175;48.154;11.534;2023-01-16T08:40:17;2.70;99.90
15967;DHT22;15175;48.154;11.534;2023-01-16T08:42:44;2.60;99.90
15967;DHT22;15175;48.154;11.534;2023-01-16T08:45:29;2.60;99.90
15967;DHT22;15175;48.154;11.534;2023-01-16T08:48:15;2.50;99.90
15967;DHT22;15175;48.154;11.534;2023-01-16T08:51:02;2.50;99.90
15967;DHT22;15175;48.154;11.534;2023-01-16T08:53:49;2.50;99.90
15967;DHT22;15175;48.154;11.534;2023-01-16T08:56:16;2.50;99.90
15967;DHT22;15175;48.154;11.534;2023-01-16T08:58:43;2.50;99.90
15967;DHT22;15175;48.154;11.534;2023-01-16T09:01:10;2.60;99.90
15967;DHT22;15175;48.154;11.534;2023-01-16T09:03:37;2.70;99.90
15967;DHT22;15175;48.154;11.534;2023-01-16T09:06:04;2.70;99.90
15967;DHT22;15175;48.154;11.534;2023-01-16T09:08:32;2.80;99.90
15967;DHT22;15175;48.154;11.534;2023-01-16T09:11:00;2.80;99.90
15967;DHT22;15175;48.154;11.534;2023-01-16T09:13:44;2.80;99.90
15967;DHT22;15175;48.154;11.534;2023-01-16T09:16:19;2.90;99.90
15967;DHT22;15175;48.154;11.534;2023-01-16T09:18:46;2.90;99.90
15967;DHT22;15175;48.154;11.534;2023-01-16T09:21:14;3.00;99.90
15967;DHT22;15175;48.154;11.534;2023-01-16T09:23:41;3.00;99.90
15967;DHT22;15175;48.154;11.534;2023-01-16T09:26:09;3.00;99.90
15967;DHT22;15175;48.154;11.534;2023-01-16T09:28:36;3.10;99.90
15967;DHT22;15175;48.154;11.534;2023-01-16T09:31:04;3.10;99.90
15967;DHT22;15175;48.154;11.534;2023-01-16T09:33:31;3.10;99.90
15967;DHT22;15175;48.154;11.534;2023-01-16T09:35:58;3.20;99.90
15967;DHT22;15175;48.154;11.534;2023-01-16T09:38:26;3.20;99.90
15967;DHT22;15175;48.154;11.534;2023-01-16T09:40:57;3.20;99.90
15967;DHT22;15175;48.154;11.534;2023-01-16T09:43:35;3.30;99.90
15967;DHT22;15175;48.154;11.534;2023-01-16T09:46:09;3.30;99.90
15967;DHT22;15175;48.154;11.534;2023-01-16T09:48:42;3.30;99.90
15967;DHT22;15175;48.154;11.534;2023-01-16T09:51:15;3.40;99.90
15967;DHT22;15175;48.154;11.534;2023-01-16T09:53:46;3.50;99.90
15967;DHT22;15175;48.154;11.534;2023-01-16T09:56:36;3.60;99.90
15967;DHT22;15175;48.154;11.534;2023-01-16T09:59:29;3.60;99.90
15967;DHT22;15175;48.154;11.534;2023-01-16T10:02:05;3.70;99.90
15967;DHT22;15175;48.154;11.534;2023-01-16T10:04:34;3.70;99.90
15967;DHT22;15175;48.154;11.534;2023-01-16T10:07:20;3.70;99.90
15967;DHT22;15175;48.154;11.534;2023-01-16T10:09:58;3.80;99.90
15967;DHT22;15175;48.154;11.534;2023-01-16T10:12:32;3.80;99.90
15967;DHT22;15175;48.154;11.534;2023-01-16T10:15:13;3.80;99.90
15967;DHT22;15175;48.154;11.534;2023-01-16T10:17:52;3.80;99.90
15967;DHT22;15175;48.154;11.534;2023-01-16T10:20:47;3.90;99.90
15967;DHT22;15175;48.154;11.534;2023-01-16T10:23:30;3.90;99.90
15967;DHT22;15175;48.154;11.534;2023-01-16T10:26:03;3.90;99.90
15967;DHT22;15175;48.154;11.534;2023-01-16T10:28:54;4.00;99.90
15967;DHT22;15175;48.154;11.534;2023-01-16T10:31:27;4.00;99.90
15967;DHT22;15175;48.154;11.534;2023-01-16T10:33:59;4.00;99.90
15967;DHT22;15175;48.154;11.534;2023-01-16T10:36:30;4.10;99.90
15967;DHT22;15175;48.154;11.534;2023-01-16T10:38:59;4.10;99.90
15967;DHT22;15175;48.154;11.534;2023-01-16T10:41:28;4.10;99.90
15967;DHT22;15175;48.154;11.534;2023-01-16T10:44:30;4.10;99.90
15967;DHT22;15175;48.154;11.534;2023-01-16T10:47:18;4.20;99.90
15967;DHT22;15175;48.154;11.534;2023-01-16T10:50:05;4.30;99.90
15967;DHT22;15175;48.154;11.534;2023-01-16T10:52:32;4.30;99.90
15967;DHT22;15175;48.154;11.534;2023-01-16T10:55:00;4.30;99.90
15967;DHT22;15175;48.154;11.534;2023-01-16T10:57:28;4.40;99.90
15967;DHT22;15175;48.154;11.534;2023-01-16T10:59:59;4.50;99.90
15967;DHT22;15175;48.154;11.534;2023-01-16T11:02:32;4.60;99.90
15967;DHT22;15175;48.154;11.534;2023-01-16T11:05:00;4.70;99.90
15967;DHT22;15175;48.154;11.534;2023-01-16T11:07:29;4.70;99.90
15967;DHT22;15175;48.154;11.534;2023-01-16T11:09:57;4.80;99.90
15967;DHT22;15175;48.154;11.534;2023-01-16T11:12:29;4.80;99.90
15967;DHT22;15175;48.154;11.534;2023-01-16T11:15:18;4.80;99.90
15967;DHT22;15175;48.154;11.534;2023-01-16T11:18:21;4.90;99.90
15967;DHT22;15175;48.154;11.534;2023-01-16T11:20:56;5.00;99.90
15967;DHT22;15175;48.154;11.534;2023-01-16T11:23:25;5.00;99.90
15967;DHT22;15175;48.154;11.534;2023-01-16T11:25:54;5.00;99.90
15967;DHT22;15175;48.154;11.534;2023-01-16T11:28:25;5.00;99.90
15967;DHT22;15175;48.154;11.534;2023-01-16T11:30:55;5.00;99.90
15967;DHT22;15175;48.154;11.534;2023-01-16T11:33:27;5.10;99.90
15967;DHT22;15175;48.154;11.534;2023-01-16T11:36:01;5.10;99.90
15967;DHT22;15175;48.154;11.534;2023-01-16T11:38:32;5.10;99.90
15967;DHT22;15175;48.154;11.534;2023-01-16T11:41:02;5.10;99.90
15967;DHT22;15175;48.154;11.534;2023-01-16T11:43:30;5.10;99.90
15967;DHT22;15175;48.154;11.534;2023-01-16T11:46:32;5.10;99.90
15967;DHT22;15175;48.154;11.534;2023-01-16T11:49:02;5.10;99.90
15967;DHT22;15175;48.154;11.534;2023-01-16T11:51:31;5.20;99.90
15967;DHT22;15175;48.154;11.534;2023-01-16T11:54:00;5.20;99.90
15967;DHT22;15175;48.154;11.534;2023-01-16T11:56:40;5.20;99.90
15967;DHT22;15175;48.154;11.534;2023-01-16T12:02:25;5.20;99.90
15967;DHT22;15175;48.154;11.534;2023-01-16T12:05:07;5.30;99.90
15967;DHT22;15175;48.154;11.534;2023-01-16T12:08:04;5.40;99.90
15967;DHT22;15175;48.154;11.534;2023-01-16T12:10:44;5.40;99.90
15967;DHT22;15175;48.154;11.534;2023-01-16T12:13:13;5.50;99.90
15967;DHT22;15175;48.154;11.534;2023-01-16T12:16:13;5.60;99.90
15967;DHT22;15175;48.154;11.534;2023-01-16T12:18:47;5.60;99.90
15967;DHT22;15175;48.154;11.534;2023-01-16T12:21:31;5.50;99.90
15967;DHT22;15175;48.154;11.534;2023-01-16T12:24:11;5.50;99.90
15967;DHT22;15175;48.154;11.534;2023-01-16T12:26:47;5.50;99.90
15967;DHT22;15175;48.154;11.534;2023-01-16T12:29:30;5.60;99.90
15967;DHT22;15175;48.154;11.534;2023-01-16T12:32:16;5.70;99.90
15967;DHT22;15175;48.154;11.534;2023-01-16T12:35:03;5.80;99.90
15967;DHT22;15175;48.154;11.534;2023-01-16T12:37:55;5.90;99.90
15967;DHT22;15175;48.154;11.534;2023-01-16T12:40:33;6.00;99.90
15967;DHT22;15175;48.154;11.534;2023-01-16T12:43:13;6.00;99.90
15967;DHT22;15175;48.154;11.534;2023-01-16T12:45:52;6.10;99.90
15967;DHT22;15175;48.154;11.534;2023-01-16T12:48:41;6.10;99.90
15967;DHT22;15175;48.154;11.534;2023-01-16T12:51:24;6.10;99.90
15967;DHT22;15175;48.154;11.534;2023-01-16T12:54:25;6.20;99.90
15967;DHT22;15175;48.154;11.534;2023-01-16T12:57:21;6.20;99.90
15967;DHT22;15175;48.154;11.534;2023-01-16T12:59:56;6.10;99.90
15967;DHT22;15175;48.154;11.534;2023-01-16T13:02:28;6.20;99.90
15967;DHT22;15175;48.154;11.534;2023-01-16T13:05:02;6.10;99.90
15967;DHT22;15175;48.154;11.534;2023-01-16T13:07:33;6.20;99.90
15967;DHT22;15175;48.154;11.534;2023-01-16T13:10:10;6.20;99.90
15967;DHT22;15175;48.154;11.534;2023-01-16T13:13:00;6.20;99.90
15967;DHT22;15175;48.154;11.534;2023-01-16T13:15:49;6.20;99.90
15967;DHT22;15175;48.154;11.534;2023-01-16T13:18:20;6.20;99.90
15967;DHT22;15175;48.154;11.534;2023-01-16T13:20:53;6.30;99.90
15967;DHT22;15175;48.154;11.534;2023-01-16T13:23:24;6.30;99.90
15967;DHT22;15175;48.154;11.534;2023-01-16T13:25:56;6.40;99.90
15967;DHT22;15175;48.154;11.534;2023-01-16T13:28:35;6.40;99.90
15967;DHT22;15175;48.154;11.534;2023-01-16T13:31:06;6.40;99.90
15967;DHT22;15175;48.154;11.534;2023-01-16T13:33:37;6.40;99.90
15967;DHT22;15175;48.154;11.534;2023-01-16T13:36:20;6.50;99.90
15967;DHT22;15175;48.154;11.534;2023-01-16T13:39:01;6.50;99.90
15967;DHT22;15175;48.154;11.534;2023-01-16T13:41:38;6.60;99.90
15967;DHT22;15175;48.154;11.534;2023-01-16T13:44:12;6.60;99.90
15967;DHT22;15175;48.154;11.534;2023-01-16T13:47:03;6.60;99.90
15967;DHT22;15175;48.154;11.534;2023-01-16T13:49:31;6.70;99.90
15967;DHT22;15175;48.154;11.534;2023-01-16T13:52:00;6.70;99.90
15967;DHT22;15175;48.154;11.534;2023-01-16T13:54:35;6.70;99.90
15967;DHT22;15175;48.154;11.534;2023-01-16T13:57:08;6.70;99.90
15967;DHT22;15175;48.154;11.534;2023-01-16T13:59:44;6.70;99.90
15967;DHT22;15175;48.154;11.534;2023-01-16T14:02:25;6.70;99.90
15967;DHT22;15175;48.154;11.534;2023-01-16T14:05:15;6.80;99.90
15967;DHT22;15175;48.154;11.534;2023-01-16T14:07:51;6.80;99.90
15967;DHT22;15175;48.154;11.534;2023-01-16T14:11:04;6.80;99.90
15967;DHT22;15175;48.154;11.534;2023-01-16T14:13:41;6.70;99.90
15967;DHT22;15175;48.154;11.534;2023-01-16T14:16:33;6.80;99.90
15967;DHT22;15175;48.154;11.534;2023-01-16T14:19:03;6.80;99.90
15967;DHT22;15175;48.154;11.534;2023-01-16T14:21:46;6.80;99.90
15967;DHT22;15175;48.154;11.534;2023-01-16T14:24:28;6.80;99.90
15967;DHT22;15175;48.154;11.534;2023-01-16T14:27:04;6.70;99.90
15967;DHT22;15175;48.154;11.534;2023-01-16T14:29:35;6.70;99.90
15967;DHT22;15175;48.154;11.534;2023-01-16T14:32:05;6.70;99.90
15967;DHT22;15175;48.154;11.534;2023-01-16T14:34:49;6.70;99.90
15967;DHT22;15175;48.154;11.534;2023-01-16T14:37:22;6.70;99.90
15967;DHT22;15175;48.154;11.534;2023-01-16T14:39:51;6.60;99.90
15967;DHT22;15175;48.154;11.534;2023-01-16T14:42:21;6.60;99.90
15967;DHT22;15175;48.154;11.534;2023-01-16T14:45:23;6.60;99.90
15967;DHT22;15175;48.154;11.534;2023-01-16T14:48:15;6.60;99.90
15967;DHT22;15175;48.154;11.534;2023-01-16T14:51:17;6.50;99.90
15967;DHT22;15175;48.154;11.534;2023-01-16T14:54:04;6.50;99.90
15967;DHT22;15175;48.154;11.534;2023-01-16T14:56:53;6.50;99.90
15967;DHT22;15175;48.154;11.534;2023-01-16T14:59:29;6.50;99.90
15967;DHT22;15175;48.154;11.534;2023-01-16T15:02:01;6.50;99.90
15967;DHT22;15175;48.154;11.534;2023-01-16T15:04:59;6.40;99.90
15967;DHT22;15175;48.154;11.534;2023-01-16T15:07:35;6.40;99.90
15967;DHT22;15175;48.154;11.534;2023-01-16T15:10:07;6.40;99.90
15967;DHT22;15175;48.154;11.534;2023-01-16T15:12:38;6.40;99.90
15967;DHT22;15175;48.154;11.534;2023-01-16T15:15:19;6.40;99.90
15967;DHT22;15175;48.154;11.534;2023-01-16T15:17:49;6.40;99.90
15967;DHT22;15175;48.154;11.534;2023-01-16T15:20:36;6.50;99.90
15967;DHT22;15175;48.154;11.534;2023-01-16T15:23:25;6.40;99.90
15967;DHT22;15175;48.154;11.534;2023-01-16T15:26:13;6.40;99.90
15967;DHT22;15175;48.154;11.534;2023-01-16T15:28:52;6.40;99.90
15967;DHT22;15175;48.154;11.534;2023-01-16T15:31:27;6.40;99.90
15967;DHT22;15175;48.154;11.534;2023-01-16T15:34:02;6.40;99.90
15967;DHT22;15175;48.154;11.534;2023-01-16T15:36:36;6.40;99.90
15967;DHT22;15175;48.154;11.534;2023-01-16T15:39:18;6.40;99.90
15967;DHT22;15175;48.154;11.534;2023-01-16T15:41:50;6.40;99.90
15967;DHT22;15175;48.154;11.534;2023-01-16T15:44:38;6.40;99.90
15967;DHT22;15175;48.154;11.534;2023-01-16T15:50:37;6.40;99.90
15967;DHT22;15175;48.154;11.534;2023-01-16T15:53:07;6.30;99.90
15967;DHT22;15175;48.154;11.534;2023-01-16T15:55:38;6.20;99.90
15967;DHT22;15175;48.154;11.534;2023-01-16T15:58:10;6.20;99.90
15967;DHT22;15175;48.154;11.534;2023-01-16T16:00:39;6.20;99.90
15967;DHT22;15175;48.154;11.534;2023-01-16T16:03:13;6.20;99.90
15967;DHT22;15175;48.154;11.534;2023-01-16T16:05:45;6.20;99.90
15967;DHT22;15175;48.154;11.534;2023-01-16T16:08:16;6.10;99.90
15967;DHT22;15175;48.154;11.534;2023-01-16T16:10:44;6.10;99.90
15967;DHT22;15175;48.154;11.534;2023-01-16T16:13:29;6.10;99.90
15967;DHT22;15175;48.154;11.534;2023-01-16T16:15:58;6.10;99.90
15967;DHT22;15175;48.154;11.534;2023-01-16T16:18:57;6.10;99.90